sensor_id;sensor_type;location;lat;lon;timestamp;temperature;humidity
21734;DHT22;11029;47.820;10.534;2022-09-17T00:01:05;8.70;84.00
21734;DHT22;11029;47.820;10.534;2022-09-17T00:03:32;8.60;84.30
21734;DHT22;11029;47.820;10.534;2022-09-17T00:06:07;8.70;83.90
21734;DHT22;11029;47.820;10.534;2022-09-17T00:08:36;8.70;82.70
21734;DHT22;11029;47.820;10.534;2022-09-17T00:11:14;8.40;83.70
21734;DHT22;11029;47.820;10.534;2022-09-17T00:13:42;8.40;84.70
21734;DHT22;11029;47.820;10.534;2022-09-17T00:16:09;8.40;84.50
21734;DHT22;11029;47.820;10.534;2022-09-17T00:18:36;8.40;83.10
21734;DHT22;11029;47.820;10.534;2022-09-17T00:21:17;8.30;83.90
21734;DHT22;11029;47.820;10.534;2022-09-17T00:23:44;8.30;84.30
21734;DHT22;11029;47.820;10.534;2022-09-17T00:26:11;8.30;84.20
21734;DHT22;11029;47.820;10.534;2022-09-17T00:28:38;8.30;83.50
21734;DHT22;11029;47.820;10.534;2022-09-17T00:31:08;8.20;83.30
21734;DHT22;11029;47.820;10.534;2022-09-17T00:33:35;8.20;82.70
21734;DHT22;11029;47.820;10.534;2022-09-17T00:36:03;8.20;82.30
21734;DHT22;11029;47.820;10.534;2022-09-17T00:38:31;8.10;82.00
21734;DHT22;11029;47.820;10.534;2022-09-17T00:40:57;8.20;82.30
21734;DHT22;11029;47.820;10.534;2022-09-17T00:43:47;8.20;81.50
21734;DHT22;11029;47.820;10.534;2022-09-17T00:46:35;8.20;81.50
21734;DHT22;11029;47.820;10.534;2022-09-17T00:49:13;8.10;81.10
21734;DHT22;11029;47.820;10.534;2022-09-17T00:51:56;8.20;81.80
21734;DHT22;11029;47.820;10.534;2022-09-17T00:54:26;8.10;81.60
21734;DHT22;11029;47.820;10.534;2022-09-17T00:56:53;8.10;81.90
21734;DHT22;11029;47.820;10.534;2022-09-17T00:59:20;8.10;82.00
21734;DHT22;11029;47.820;10.534;2022-09-17T01:01:48;8.10;82.30
21734;DHT22;11029;47.820;10.534;2022-09-17T01:04:19;8.10;82.30
21734;DHT22;11029;47.820;10.534;2022-09-17T01:06:54;8.20;82.20
21734;DHT22;11029;47.820;10.534;2022-09-17T01:09:42;8.10;82.40
21734;DHT22;11029;47.820;10.534;2022-09-17T01:26:47;8.00;84.30
21734;DHT22;11029;47.820;10.534;2022-09-17T01:29:48;8.00;84.40
21734;DHT22;11029;47.820;10.534;2022-09-17T01:32:35;8.00;84.20
21734;DHT22;11029;47.820;10.534;2022-09-17T01:35:13;8.00;84.20
21734;DHT22;11029;47.820;10.534;2022-09-17T01:38:12;7.90;84.00
21734;DHT22;11029;47.820;10.534;2022-09-17T01:40:51;7.90;83.20
21734;DHT22;11029;47.820;10.534;2022-09-17T01:43:31;7.80;83.00
21734;DHT22;11029;47.820;10.534;2022-09-17T01:46:09;7.70;82.60
21734;DHT22;11029;47.820;10.534;2022-09-17T01:48:40;7.70;83.30
21734;DHT22;11029;47.820;10.534;2022-09-17T01:51:13;7.80;83.10
21734;DHT22;11029;47.820;10.534;2022-09-17T01:53:47;7.80;82.60
21734;DHT22;11029;47.820;10.534;2022-09-17T01:56:21;7.70;82.20
21734;DHT22;11029;47.820;10.534;2022-09-17T01:59:57;7.60;82.40
21734;DHT22;11029;47.820;10.534;2022-09-17T02:01:55;7.50;82.00
21734;DHT22;11029;47.820;10.534;2022-09-17T02:04:31;7.50;82.70
21734;DHT22;11029;47.820;10.534;2022-09-17T02:07:04;7.40;82.10
21734;DHT22;11029;47.820;10.534;2022-09-17T02:09:40;7.40;82.80
21734;DHT22;11029;47.820;10.534;2022-09-17T02:12:14;7.40;82.40
21734;DHT22;11029;47.820;10.534;2022-09-17T02:14:50;7.30;83.00
21734;DHT22;11029;47.820;10.534;2022-09-17T02:17:38;7.30;83.40
21734;DHT22;11029;47.820;10.534;2022-09-17T02:20:07;7.20;83.70
21734;DHT22;11029;47.820;10.534;2022-09-17T02:22:48;7.30;83.90
21734;DHT22;11029;47.820;10.534;2022-09-17T02:25:27;7.30;83.20
21734;DHT22;11029;47.820;10.534;2022-09-17T02:28:18;7.30;83.70
21734;DHT22;11029;47.820;10.534;2022-09-17T02:30:48;7.30;83.20
21734;DHT22;11029;47.820;10.534;2022-09-17T02:33:16;7.30;83.30
21734;DHT22;11029;47.820;10.534;2022-09-17T02:35:44;7.40;82.70
21734;DHT22;11029;47.820;10.534;2022-09-17T02:38:12;7.40;83.10
21734;DHT22;11029;47.820;10.534;2022-09-17T02:40:47;7.30;82.80
21734;DHT22;11029;47.820;10.534;2022-09-17T02:46:07;7.20;83.30
21734;DHT22;11029;47.820;10.534;2022-09-17T02:54:25;7.10;83.40
21734;DHT22;11029;47.820;10.534;2022-09-17T02:57:10;7.10;83.20
21734;DHT22;11029;47.820;10.534;2022-09-17T02:59:55;7.10;83.50
21734;DHT22;11029;47.820;10.534;2022-09-17T03:02:29;7.10;84.00
21734;DHT22;11029;47.820;10.534;2022-09-17T03:04:57;7.10;83.90
21734;DHT22;11029;47.820;10.534;2022-09-17T03:07:25;7.10;84.30
21734;DHT22;11029;47.820;10.534;2022-09-17T03:09:54;7.10;84.40
21734;DHT22;11029;47.820;10.534;2022-09-17T03:12:21;7.10;84.40
21734;DHT22;11029;47.820;10.534;2022-09-17T03:14:49;7.10;84.20
21734;DHT22;11029;47.820;10.534;2022-09-17T03:17:16;7.10;84.10
21734;DHT22;11029;47.820;10.534;2022-09-17T03:19:43;7.10;84.00
21734;DHT22;11029;47.820;10.534;2022-09-17T03:22:10;7.10;83.80
21734;DHT22;11029;47.820;10.534;2022-09-17T03:24:37;7.00;83.70
21734;DHT22;11029;47.820;10.534;2022-09-17T03:27:04;7.00;83.60
21734;DHT22;11029;47.820;10.534;2022-09-17T03:29:31;7.00;83.90
21734;DHT22;11029;47.820;10.534;2022-09-17T03:31:57;7.00;84.10
21734;DHT22;11029;47.820;10.534;2022-09-17T03:34:24;7.00;84.00
21734;DHT22;11029;47.820;10.534;2022-09-17T03:36:51;7.00;83.90
21734;DHT22;11029;47.820;10.534;2022-09-17T03:39:18;6.90;84.30
21734;DHT22;11029;47.820;10.534;2022-09-17T03:41:44;7.00;83.90
21734;DHT22;11029;47.820;10.534;2022-09-17T03:44:11;6.90;84.00
21734;DHT22;11029;47.820;10.534;2022-09-17T03:46:38;7.00;84.50
21734;DHT22;11029;47.820;10.534;2022-09-17T03:49:04;7.00;83.60
21734;DHT22;11029;47.820;10.534;2022-09-17T03:51:31;6.90;83.20
21734;DHT22;11029;47.820;10.534;2022-09-17T03:53:58;7.00;83.50
21734;DHT22;11029;47.820;10.534;2022-09-17T03:56:25;7.00;83.50
21734;DHT22;11029;47.820;10.534;2022-09-17T03:58:56;7.00;83.70
21734;DHT22;11029;47.820;10.534;2022-09-17T04:01:23;7.00;83.40
21734;DHT22;11029;47.820;10.534;2022-09-17T04:03:50;6.90;83.10
21734;DHT22;11029;47.820;10.534;2022-09-17T04:06:17;6.90;83.80
21734;DHT22;11029;47.820;10.534;2022-09-17T04:08:43;6.80;83.40
21734;DHT22;11029;47.820;10.534;2022-09-17T04:11:10;6.90;83.80
21734;DHT22;11029;47.820;10.534;2022-09-17T04:13:37;6.80;83.50
21734;DHT22;11029;47.820;10.534;2022-09-17T04:16:03;6.80;83.90
21734;DHT22;11029;47.820;10.534;2022-09-17T04:18:30;6.70;83.60
21734;DHT22;11029;47.820;10.534;2022-09-17T04:20:57;6.70;83.80
21734;DHT22;11029;47.820;10.534;2022-09-17T04:23:24;6.60;84.10
21734;DHT22;11029;47.820;10.534;2022-09-17T04:25:50;6.60;84.50
21734;DHT22;11029;47.820;10.534;2022-09-17T04:28:18;6.60;84.30
21734;DHT22;11029;47.820;10.534;2022-09-17T04:30:46;6.60;84.60
21734;DHT22;11029;47.820;10.534;2022-09-17T04:33:13;6.60;84.30
21734;DHT22;11029;47.820;10.534;2022-09-17T04:35:39;6.60;84.50
21734;DHT22;11029;47.820;10.534;2022-09-17T04:38:08;6.60;84.90
21734;DHT22;11029;47.820;10.534;2022-09-17T04:40:34;6.60;84.40
21734;DHT22;11029;47.820;10.534;2022-09-17T04:43:01;6.60;84.50
21734;DHT22;11029;47.820;10.534;2022-09-17T04:45:29;6.60;84.20
21734;DHT22;11029;47.820;10.534;2022-09-17T04:47:58;6.60;84.00
21734;DHT22;11029;47.820;10.534;2022-09-17T04:50:25;6.60;84.40
21734;DHT22;11029;47.820;10.534;2022-09-17T04:52:52;6.70;84.40
21734;DHT22;11029;47.820;10.534;2022-09-17T04:55:19;6.70;84.50
21734;DHT22;11029;47.820;10.534;2022-09-17T04:57:50;6.70;83.90
21734;DHT22;11029;47.820;10.534;2022-09-17T05:00:19;6.70;84.00
21734;DHT22;11029;47.820;10.534;2022-09-17T05:02:48;6.80;84.10
21734;DHT22;11029;47.820;10.534;2022-09-17T05:05:16;6.80;84.00
21734;DHT22;11029;47.820;10.534;2022-09-17T05:07:43;6.80;84.60
21734;DHT22;11029;47.820;10.534;2022-09-17T05:10:12;6.80;84.60
21734;DHT22;11029;47.820;10.534;2022-09-17T05:12:39;6.70;84.90
21734;DHT22;11029;47.820;10.534;2022-09-17T05:15:06;6.70;84.20
21734;DHT22;11029;47.820;10.534;2022-09-17T05:17:33;6.80;84.10
21734;DHT22;11029;47.820;10.534;2022-09-17T05:20:00;6.80;84.40
21734;DHT22;11029;47.820;10.534;2022-09-17T05:22:27;6.80;83.40
21734;DHT22;11029;47.820;10.534;2022-09-17T05:24:54;6.80;83.30
21734;DHT22;11029;47.820;10.534;2022-09-17T05:27:20;6.80;84.30
21734;DHT22;11029;47.820;10.534;2022-09-17T05:29:48;6.80;82.90
21734;DHT22;11029;47.820;10.534;2022-09-17T05:32:15;6.80;82.90
21734;DHT22;11029;47.820;10.534;2022-09-17T05:34:42;6.80;82.20
21734;DHT22;11029;47.820;10.534;2022-09-17T05:37:10;6.80;82.50
21734;DHT22;11029;47.820;10.534;2022-09-17T05:39:37;6.80;83.00
21734;DHT22;11029;47.820;10.534;2022-09-17T05:42:03;6.90;83.20
21734;DHT22;11029;47.820;10.534;2022-09-17T05:44:30;6.80;83.70
21734;DHT22;11029;47.820;10.534;2022-09-17T05:46:57;6.80;83.70
21734;DHT22;11029;47.820;10.534;2022-09-17T05:49:24;6.70;83.60
21734;DHT22;11029;47.820;10.534;2022-09-17T05:51:51;6.70;84.30
21734;DHT22;11029;47.820;10.534;2022-09-17T05:54:18;6.80;84.10
21734;DHT22;11029;47.820;10.534;2022-09-17T05:56:45;6.70;84.00
21734;DHT22;11029;47.820;10.534;2022-09-17T05:59:11;6.80;84.10
21734;DHT22;11029;47.820;10.534;2022-09-17T06:01:40;6.70;83.70
21734;DHT22;11029;47.820;10.534;2022-09-17T06:04:10;6.70;83.30
21734;DHT22;11029;47.820;10.534;2022-09-17T06:06:37;6.70;83.70
21734;DHT22;11029;47.820;10.534;2022-09-17T06:09:05;6.70;83.00
21734;DHT22;11029;47.820;10.534;2022-09-17T06:11:34;6.70;83.10
21734;DHT22;11029;47.820;10.534;2022-09-17T06:14:02;6.70;83.20
21734;DHT22;11029;47.820;10.534;2022-09-17T06:16:31;6.80;82.70
21734;DHT22;11029;47.820;10.534;2022-09-17T06:18:58;6.70;82.60
21734;DHT22;11029;47.820;10.534;2022-09-17T06:21:25;6.70;82.80
21734;DHT22;11029;47.820;10.534;2022-09-17T06:23:52;6.70;83.40
21734;DHT22;11029;47.820;10.534;2022-09-17T06:26:19;6.80;83.30
21734;DHT22;11029;47.820;10.534;2022-09-17T06:28:45;6.70;82.90
21734;DHT22;11029;47.820;10.534;2022-09-17T06:31:12;6.70;82.30
21734;DHT22;11029;47.820;10.534;2022-09-17T06:33:40;6.70;82.40
21734;DHT22;11029;47.820;10.534;2022-09-17T06:36:08;6.80;82.10
21734;DHT22;11029;47.820;10.534;2022-09-17T06:38:40;6.80;82.70
21734;DHT22;11029;47.820;10.534;2022-09-17T06:41:07;6.80;83.60
21734;DHT22;11029;47.820;10.534;2022-09-17T06:43:34;6.80;83.30
21734;DHT22;11029;47.820;10.534;2022-09-17T06:46:03;6.80;83.40
21734;DHT22;11029;47.820;10.534;2022-09-17T06:48:34;6.70;84.00
21734;DHT22;11029;47.820;10.534;2022-09-17T06:51:02;6.50;79.20
21734;DHT22;11029;47.820;10.534;2022-09-17T06:53:30;6.20;79.20
21734;DHT22;11029;47.820;10.534;2022-09-17T06:55:58;5.80;80.80
21734;DHT22;11029;47.820;10.534;2022-09-17T06:58:32;5.80;81.50
21734;DHT22;11029;47.820;10.534;2022-09-17T07:01:03;5.90;81.50
21734;DHT22;11029;47.820;10.534;2022-09-17T07:03:31;6.00;82.80
21734;DHT22;11029;47.820;10.534;2022-09-17T07:05:58;6.10;80.40
21734;DHT22;11029;47.820;10.534;2022-09-17T07:08:24;6.20;81.70
21734;DHT22;11029;47.820;10.534;2022-09-17T07:10:56;6.20;82.60
21734;DHT22;11029;47.820;10.534;2022-09-17T07:13:23;6.20;82.40
21734;DHT22;11029;47.820;10.534;2022-09-17T07:15:54;6.30;82.80
21734;DHT22;11029;47.820;10.534;2022-09-17T07:18:21;6.40;82.80
21734;DHT22;11029;47.820;10.534;2022-09-17T07:20:56;6.30;81.90
21734;DHT22;11029;47.820;10.534;2022-09-17T07:23:25;6.30;82.30
21734;DHT22;11029;47.820;10.534;2022-09-17T07:25:53;6.30;82.60
21734;DHT22;11029;47.820;10.534;2022-09-17T07:28:20;6.40;81.60
21734;DHT22;11029;47.820;10.534;2022-09-17T07:30:49;6.30;83.00
21734;DHT22;11029;47.820;10.534;2022-09-17T07:33:18;6.50;83.10
21734;DHT22;11029;47.820;10.534;2022-09-17T07:35:53;6.50;82.30
21734;DHT22;11029;47.820;10.534;2022-09-17T07:38:21;6.60;82.50
21734;DHT22;11029;47.820;10.534;2022-09-17T07:40:58;6.70;82.60
21734;DHT22;11029;47.820;10.534;2022-09-17T07:43:27;6.70;83.70
21734;DHT22;11029;47.820;10.534;2022-09-17T07:45:56;6.90;83.90
21734;DHT22;11029;47.820;10.534;2022-09-17T07:48:23;7.00;81.90
21734;DHT22;11029;47.820;10.534;2022-09-17T07:50:51;7.10;82.40
21734;DHT22;11029;47.820;10.534;2022-09-17T07:53:18;7.20;82.00
21734;DHT22;11029;47.820;10.534;2022-09-17T07:55:55;7.20;80.80
21734;DHT22;11029;47.820;10.534;2022-09-17T07:58:53;7.30;82.50
21734;DHT22;11029;47.820;10.534;2022-09-17T08:06:10;7.40;81.20
21734;DHT22;11029;47.820;10.534;2022-09-17T08:08:39;7.40;80.00
21734;DHT22;11029;47.820;10.534;2022-09-17T08:11:16;7.60;80.40
21734;DHT22;11029;47.820;10.534;2022-09-17T08:14:04;7.80;78.80
21734;DHT22;11029;47.820;10.534;2022-09-17T08:16:31;8.00;77.90
21734;DHT22;11029;47.820;10.534;2022-09-17T08:18:57;8.00;78.50
21734;DHT22;11029;47.820;10.534;2022-09-17T08:21:24;8.10;78.30
21734;DHT22;11029;47.820;10.534;2022-09-17T08:23:51;8.10;78.30
21734;DHT22;11029;47.820;10.534;2022-09-17T08:26:22;8.20;77.40
21734;DHT22;11029;47.820;10.534;2022-09-17T08:28:51;8.20;78.50
21734;DHT22;11029;47.820;10.534;2022-09-17T08:31:24;8.20;77.40
21734;DHT22;11029;47.820;10.534;2022-09-17T08:33:52;8.20;76.40
21734;DHT22;11029;47.820;10.534;2022-09-17T08:36:19;8.10;75.80
21734;DHT22;11029;47.820;10.534;2022-09-17T08:38:52;8.10;76.00
21734;DHT22;11029;47.820;10.534;2022-09-17T08:41:54;8.10;77.20
21734;DHT22;11029;47.820;10.534;2022-09-17T08:44:38;8.10;75.80
21734;DHT22;11029;47.820;10.534;2022-09-17T08:47:35;8.20;75.80
21734;DHT22;11029;47.820;10.534;2022-09-17T08:50:10;8.10;77.00
21734;DHT22;11029;47.820;10.534;2022-09-17T08:55:41;7.80;74.80
21734;DHT22;11029;47.820;10.534;2022-09-17T09:05:12;8.00;75.80
21734;DHT22;11029;47.820;10.534;2022-09-17T09:08:27;8.60;72.70
21734;DHT22;11029;47.820;10.534;2022-09-17T09:10:58;8.70;72.70
21734;DHT22;11029;47.820;10.534;2022-09-17T09:14:10;8.40;71.40
21734;DHT22;11029;47.820;10.534;2022-09-17T09:16:31;8.30;68.80
21734;DHT22;11029;47.820;10.534;2022-09-17T09:19:16;8.30;70.20
21734;DHT22;11029;47.820;10.534;2022-09-17T09:22:25;8.30;70.30
21734;DHT22;11029;47.820;10.534;2022-09-17T09:30:56;8.10;68.80
21734;DHT22;11029;47.820;10.534;2022-09-17T09:33:45;8.10;71.80
21734;DHT22;11029;47.820;10.534;2022-09-17T09:36:15;8.10;70.60
21734;DHT22;11029;47.820;10.534;2022-09-17T09:39:08;8.10;71.30
21734;DHT22;11029;47.820;10.534;2022-09-17T09:41:51;8.10;72.30
21734;DHT22;11029;47.820;10.534;2022-09-17T09:44:20;8.00;72.20
21734;DHT22;11029;47.820;10.534;2022-09-17T09:47:16;8.10;74.00
21734;DHT22;11029;47.820;10.534;2022-09-17T09:49:48;8.10;71.10
21734;DHT22;11029;47.820;10.534;2022-09-17T09:55:33;8.10;72.30
21734;DHT22;11029;47.820;10.534;2022-09-17T09:58:26;8.10;70.20
21734;DHT22;11029;47.820;10.534;2022-09-17T10:00:56;8.20;70.30
21734;DHT22;11029;47.820;10.534;2022-09-17T10:03:30;8.30;70.30
21734;DHT22;11029;47.820;10.534;2022-09-17T10:08:25;8.60;71.70
21734;DHT22;11029;47.820;10.534;2022-09-17T10:10:54;8.80;72.00
21734;DHT22;11029;47.820;10.534;2022-09-17T10:13:21;8.90;68.70
21734;DHT22;11029;47.820;10.534;2022-09-17T10:15:48;8.80;68.40
21734;DHT22;11029;47.820;10.534;2022-09-17T10:18:23;8.70;67.80
21734;DHT22;11029;47.820;10.534;2022-09-17T10:20:58;8.80;70.50
21734;DHT22;11029;47.820;10.534;2022-09-17T10:23:27;8.80;70.00
21734;DHT22;11029;47.820;10.534;2022-09-17T10:25:55;9.00;71.50
21734;DHT22;11029;47.820;10.534;2022-09-17T10:28:49;9.10;69.40
21734;DHT22;11029;47.820;10.534;2022-09-17T10:31:16;9.10;69.60
21734;DHT22;11029;47.820;10.534;2022-09-17T10:34:12;8.90;69.00
21734;DHT22;11029;47.820;10.534;2022-09-17T10:36:45;8.60;67.50
21734;DHT22;11029;47.820;10.534;2022-09-17T10:39:34;8.60;68.90
21734;DHT22;11029;47.820;10.534;2022-09-17T10:44:53;8.50;71.20
21734;DHT22;11029;47.820;10.534;2022-09-17T10:47:34;8.60;73.10
21734;DHT22;11029;47.820;10.534;2022-09-17T10:50:13;8.70;68.90
21734;DHT22;11029;47.820;10.534;2022-09-17T10:52:47;8.80;71.80
21734;DHT22;11029;47.820;10.534;2022-09-17T10:55:29;9.00;69.70
21734;DHT22;11029;47.820;10.534;2022-09-17T11:07:16;8.70;72.60
21734;DHT22;11029;47.820;10.534;2022-09-17T11:18:22;6.40;81.40
21734;DHT22;11029;47.820;10.534;2022-09-17T11:29:01;7.20;81.10
21734;DHT22;11029;47.820;10.534;2022-09-17T11:32:21;7.50;80.10
21734;DHT22;11029;47.820;10.534;2022-09-17T11:35:34;7.50;79.20
21734;DHT22;11029;47.820;10.534;2022-09-17T11:38:24;7.90;80.90
21734;DHT22;11029;47.820;10.534;2022-09-17T11:41:19;8.20;78.60
21734;DHT22;11029;47.820;10.534;2022-09-17T11:44:40;8.20;77.80
21734;DHT22;11029;47.820;10.534;2022-09-17T11:47:04;8.10;79.50
21734;DHT22;11029;47.820;10.534;2022-09-17T11:49:59;8.30;79.10
21734;DHT22;11029;47.820;10.534;2022-09-17T11:55:29;8.40;80.70
21734;DHT22;11029;47.820;10.534;2022-09-17T11:58:01;8.40;77.10
21734;DHT22;11029;47.820;10.534;2022-09-17T12:00:33;8.30;78.30
21734;DHT22;11029;47.820;10.534;2022-09-17T12:03:47;8.20;77.80
21734;DHT22;11029;47.820;10.534;2022-09-17T12:06:22;8.10;79.60
21734;DHT22;11029;47.820;10.534;2022-09-17T12:09:01;8.00;79.60
21734;DHT22;11029;47.820;10.534;2022-09-17T12:12:32;7.80;77.50
21734;DHT22;11029;47.820;10.534;2022-09-17T12:14:56;7.70;79.50
21734;DHT22;11029;47.820;10.534;2022-09-17T12:17:27;7.90;79.20
21734;DHT22;11029;47.820;10.534;2022-09-17T12:20:05;7.90;81.00
21734;DHT22;11029;47.820;10.534;2022-09-17T12:22:38;7.90;79.80
21734;DHT22;11029;47.820;10.534;2022-09-17T12:25:12;7.90;77.90
21734;DHT22;11029;47.820;10.534;2022-09-17T12:27:49;7.90;78.50
21734;DHT22;11029;47.820;10.534;2022-09-17T12:30:21;8.00;80.60
21734;DHT22;11029;47.820;10.534;2022-09-17T12:35:32;7.60;79.70
21734;DHT22;11029;47.820;10.534;2022-09-17T12:44:27;7.10;76.30
21734;DHT22;11029;47.820;10.534;2022-09-17T12:47:28;7.30;78.70
21734;DHT22;11029;47.820;10.534;2022-09-17T12:50:13;7.60;77.80
21734;DHT22;11029;47.820;10.534;2022-09-17T12:53:01;7.90;79.60
21734;DHT22;11029;47.820;10.534;2022-09-17T12:55:53;8.10;79.10
21734;DHT22;11029;47.820;10.534;2022-09-17T12:59:27;8.20;78.30
21734;DHT22;11029;47.820;10.534;2022-09-17T13:04:39;8.60;79.50
21734;DHT22;11029;47.820;10.534;2022-09-17T13:10:19;8.60;79.40
21734;DHT22;11029;47.820;10.534;2022-09-17T13:13:04;8.60;79.60
21734;DHT22;11029;47.820;10.534;2022-09-17T13:15:42;8.50;79.40
21734;DHT22;11029;47.820;10.534;2022-09-17T13:26:07;7.90;81.70
21734;DHT22;11029;47.820;10.534;2022-09-17T13:28:38;8.00;81.40
21734;DHT22;11029;47.820;10.534;2022-09-17T13:31:12;8.30;81.30
21734;DHT22;11029;47.820;10.534;2022-09-17T13:33:54;8.50;80.30
21734;DHT22;11029;47.820;10.534;2022-09-17T13:36:41;8.70;79.60
21734;DHT22;11029;47.820;10.534;2022-09-17T13:39:31;8.80;78.70
21734;DHT22;11029;47.820;10.534;2022-09-17T13:42:05;8.90;77.40
21734;DHT22;11029;47.820;10.534;2022-09-17T13:44:41;9.10;78.10
21734;DHT22;11029;47.820;10.534;2022-09-17T13:47:25;9.10;78.10
21734;DHT22;11029;47.820;10.534;2022-09-17T13:50:40;9.00;73.70
21734;DHT22;11029;47.820;10.534;2022-09-17T13:52:48;8.90;76.10
21734;DHT22;11029;47.820;10.534;2022-09-17T13:55:36;8.90;77.60
21734;DHT22;11029;47.820;10.534;2022-09-17T13:58:25;9.00;77.60
21734;DHT22;11029;47.820;10.534;2022-09-17T14:01:10;9.00;76.00
21734;DHT22;11029;47.820;10.534;2022-09-17T14:16:32;9.20;75.60
21734;DHT22;11029;47.820;10.534;2022-09-17T14:21:56;9.10;74.50
21734;DHT22;11029;47.820;10.534;2022-09-17T14:30:01;9.40;73.40
21734;DHT22;11029;47.820;10.534;2022-09-17T14:32:56;10.00;73.10
21734;DHT22;11029;47.820;10.534;2022-09-17T14:35:42;10.10;66.60
21734;DHT22;11029;47.820;10.534;2022-09-17T14:44:43;9.10;72.30
21734;DHT22;11029;47.820;10.534;2022-09-17T14:46:58;8.90;73.00
21734;DHT22;11029;47.820;10.534;2022-09-17T14:49:36;8.90;73.40
21734;DHT22;11029;47.820;10.534;2022-09-17T14:55:18;8.80;74.10
21734;DHT22;11029;47.820;10.534;2022-09-17T14:57:48;8.90;74.80
21734;DHT22;11029;47.820;10.534;2022-09-17T15:00:25;8.90;73.90
21734;DHT22;11029;47.820;10.534;2022-09-17T15:02:56;8.80;75.30
21734;DHT22;11029;47.820;10.534;2022-09-17T15:05:33;8.60;75.10
21734;DHT22;11029;47.820;10.534;2022-09-17T15:08:05;8.60;75.70
21734;DHT22;11029;47.820;10.534;2022-09-17T15:10:43;8.70;75.00
21734;DHT22;11029;47.820;10.534;2022-09-17T15:13:17;8.60;75.90
21734;DHT22;11029;47.820;10.534;2022-09-17T15:18:34;8.50;76.90
21734;DHT22;11029;47.820;10.534;2022-09-17T15:21:04;8.40;76.60
21734;DHT22;11029;47.820;10.534;2022-09-17T15:23:33;8.20;76.60
21734;DHT22;11029;47.820;10.534;2022-09-17T15:26:01;8.20;77.30
21734;DHT22;11029;47.820;10.534;2022-09-17T15:28:41;8.20;78.60
21734;DHT22;11029;47.820;10.534;2022-09-17T15:31:18;8.10;77.40
21734;DHT22;11029;47.820;10.534;2022-09-17T15:33:46;7.90;79.10
21734;DHT22;11029;47.820;10.534;2022-09-17T15:36:24;7.90;78.80
21734;DHT22;11029;47.820;10.534;2022-09-17T15:38:53;7.90;77.90
21734;DHT22;11029;47.820;10.534;2022-09-17T15:41:35;7.90;77.90
21734;DHT22;11029;47.820;10.534;2022-09-17T15:44:07;7.80;79.00
21734;DHT22;11029;47.820;10.534;2022-09-17T15:47:20;7.70;79.10
21734;DHT22;11029;47.820;10.534;2022-09-17T15:50:05;7.60;79.30
21734;DHT22;11029;47.820;10.534;2022-09-17T15:52:36;7.60;79.50
21734;DHT22;11029;47.820;10.534;2022-09-17T15:55:04;7.40;80.60
21734;DHT22;11029;47.820;10.534;2022-09-17T15:57:34;7.30;81.40
21734;DHT22;11029;47.820;10.534;2022-09-17T16:00:10;7.30;82.20
21734;DHT22;11029;47.820;10.534;2022-09-17T16:02:38;7.30;82.00
21734;DHT22;11029;47.820;10.534;2022-09-17T16:07:45;7.20;83.00
21734;DHT22;11029;47.820;10.534;2022-09-17T16:10:13;7.30;82.90
21734;DHT22;11029;47.820;10.534;2022-09-17T16:12:41;7.30;82.60
21734;DHT22;11029;47.820;10.534;2022-09-17T16:15:12;7.30;83.20
21734;DHT22;11029;47.820;10.534;2022-09-17T16:17:46;7.10;83.20
21734;DHT22;11029;47.820;10.534;2022-09-17T16:20:20;7.10;84.10
21734;DHT22;11029;47.820;10.534;2022-09-17T16:22:52;7.10;84.10
21734;DHT22;11029;47.820;10.534;2022-09-17T16:25:23;7.20;84.90
21734;DHT22;11029;47.820;10.534;2022-09-17T16:27:55;7.20;84.60
21734;DHT22;11029;47.820;10.534;2022-09-17T16:30:23;7.20;83.10
21734;DHT22;11029;47.820;10.534;2022-09-17T16:32:50;7.20;84.10
21734;DHT22;11029;47.820;10.534;2022-09-17T16:35:27;7.20;83.70
21734;DHT22;11029;47.820;10.534;2022-09-17T16:37:55;7.30;83.60
21734;DHT22;11029;47.820;10.534;2022-09-17T16:40:48;7.20;84.50
21734;DHT22;11029;47.820;10.534;2022-09-17T16:43:18;7.20;84.80
21734;DHT22;11029;47.820;10.534;2022-09-17T16:46:15;7.20;84.60
21734;DHT22;11029;47.820;10.534;2022-09-17T16:48:48;7.30;85.00
21734;DHT22;11029;47.820;10.534;2022-09-17T16:51:22;7.30;84.70
21734;DHT22;11029;47.820;10.534;2022-09-17T16:53:51;7.30;85.30
21734;DHT22;11029;47.820;10.534;2022-09-17T16:56:19;7.30;84.00
21734;DHT22;11029;47.820;10.534;2022-09-17T16:58:46;7.30;83.90
21734;DHT22;11029;47.820;10.534;2022-09-17T17:01:14;7.20;84.20
21734;DHT22;11029;47.820;10.534;2022-09-17T17:03:42;7.20;84.10
21734;DHT22;11029;47.820;10.534;2022-09-17T17:06:18;7.20;82.90
21734;DHT22;11029;47.820;10.534;2022-09-17T17:08:45;7.20;82.80
21734;DHT22;11029;47.820;10.534;2022-09-17T17:11:13;7.00;82.30
21734;DHT22;11029;47.820;10.534;2022-09-17T17:13:46;7.00;82.20
21734;DHT22;11029;47.820;10.534;2022-09-17T17:16:13;6.90;83.10
21734;DHT22;11029;47.820;10.534;2022-09-17T17:18:43;6.80;83.00
21734;DHT22;11029;47.820;10.534;2022-09-17T17:21:12;6.70;82.80
21734;DHT22;11029;47.820;10.534;2022-09-17T17:23:40;6.70;83.00
21734;DHT22;11029;47.820;10.534;2022-09-17T17:26:09;6.70;83.10
21734;DHT22;11029;47.820;10.534;2022-09-17T17:28:39;6.70;83.50
21734;DHT22;11029;47.820;10.534;2022-09-17T17:31:06;6.70;83.40
21734;DHT22;11029;47.820;10.534;2022-09-17T17:33:33;6.60;84.20
21734;DHT22;11029;47.820;10.534;2022-09-17T17:36:01;6.60;84.30
21734;DHT22;11029;47.820;10.534;2022-09-17T17:38:33;6.60;84.30
21734;DHT22;11029;47.820;10.534;2022-09-17T17:41:09;6.70;84.40
21734;DHT22;11029;47.820;10.534;2022-09-17T17:43:36;6.70;84.70
21734;DHT22;11029;47.820;10.534;2022-09-17T17:46:10;6.70;84.30
21734;DHT22;11029;47.820;10.534;2022-09-17T17:48:37;6.70;84.50
21734;DHT22;11029;47.820;10.534;2022-09-17T17:51:07;6.60;84.30
21734;DHT22;11029;47.820;10.534;2022-09-17T17:53:35;6.60;84.90
21734;DHT22;11029;47.820;10.534;2022-09-17T17:56:04;6.60;84.70
21734;DHT22;11029;47.820;10.534;2022-09-17T17:58:32;6.60;85.10
21734;DHT22;11029;47.820;10.534;2022-09-17T18:00:59;6.60;85.10
21734;DHT22;11029;47.820;10.534;2022-09-17T18:03:26;6.60;85.00
21734;DHT22;11029;47.820;10.534;2022-09-17T18:05:54;6.60;84.70
21734;DHT22;11029;47.820;10.534;2022-09-17T18:08:24;6.60;84.70
21734;DHT22;11029;47.820;10.534;2022-09-17T18:10:56;6.60;84.40
21734;DHT22;11029;47.820;10.534;2022-09-17T18:13:23;6.60;84.60
21734;DHT22;11029;47.820;10.534;2022-09-17T18:15:55;6.60;84.80
21734;DHT22;11029;47.820;10.534;2022-09-17T18:18:23;6.70;84.00
21734;DHT22;11029;47.820;10.534;2022-09-17T18:20:50;6.60;84.90
21734;DHT22;11029;47.820;10.534;2022-09-17T18:23:19;6.50;85.20
21734;DHT22;11029;47.820;10.534;2022-09-17T18:25:58;6.50;85.10
21734;DHT22;11029;47.820;10.534;2022-09-17T18:28:26;6.50;86.00
21734;DHT22;11029;47.820;10.534;2022-09-17T18:30:53;6.60;85.70